Farnsfield, United Kingdom
Current Conditions -  °F | °C
As of 9:50 PM on Thursday 27 Nov 2014 (Local Time) from EGXW Reporting Station
Haze Haze  
Wind Chill: 41°   Ceiling: 500
Heat Index: 45°   Visibility: 2.5mi
Dew Point: 45°   Wind: 6mph
Humidity: 100%   Direction: 90°E
Pressure: 29.62"   Gusts: NA
Location:  53.1°N, 1.03°W
Report Text: EGXW 272150Z 09005KT 4000 BR BKN005 07/07 Q1003 YLO1
Loading
Personal Weather Stations






























Interactive Weather Map New forecast layout! Learn more

10-Day Weather Forecast

Advertisements
Track Severe Weather on mobile